Flight Track Log - Related Links

Times and Time Zones

All times are in EDT time to prevent confusion due to time zone crossing. See the EJM100 flight status page for this flight to view local times or setup timezone preferences in your user account.

Time Position Orientation Groundspeed Altitude Reporting Facility
EDT Latitude Longitude Course Direction KTS MPH feet Rate Location/Type
Tue 12:57:29 PM 25.7792 -80.2786 38° Northeast 120 138 1,200  Level Miami Center
Tue 12:59:01 PM 25.8539 -80.2136 38° Northeast 293 337 5,200 3,021 Climbing Miami Center
Tue 12:59:52 PM 25.8881 -80.2747 302° West 278 320 8,400 3,027 Climbing Miami Center
Tue 01:00:52 PM 25.9300 -80.3567 300° West 302 348 10,800 2,150 Climbing Miami Center
Tue 01:01:52 PM 25.9903 -80.4486 306° West 327 376 12,700 2,250 Climbing Miami Center
Tue 01:02:52 PM 26.0550 -80.5386 309° West 360 414 15,300 2,450 Climbing Miami Center
Tue 01:03:52 PM 26.1214 -80.6308 309° West 380 437 17,600 2,400 Climbing Miami Center
Tue 01:04:52 PM 26.1942 -80.7281 310° West 396 456 20,100 2,350 Climbing Miami Center
Tue 01:05:52 PM 26.2711 -80.8231 312° West 402 463 22,300 1,450 Climbing Miami Center
Tue 01:06:52 PM 26.3522 -80.9069 317° Northwest 427 491 23,000 1,350 Climbing Miami Center
Tue 01:07:52 PM 26.4475 -81.0100 316° Northwest 436 502 25,000 1,850 Climbing Miami Center
Tue 01:08:52 PM 26.5322 -81.1081 314° West 447 514 26,700 1,700 Climbing Miami Center
Tue 01:09:52 PM 26.6189 -81.2133 313° West 447 514 28,400 1,850 Climbing Miami Center
Tue 01:10:52 PM 26.6978 -81.3047 314° West 447 514 30,400 1,950 Climbing Miami Center
Tue 01:11:52 PM 26.7908 -81.3989 318° Northwest 447 514 32,300 2,100 Climbing Miami Center
Tue 01:12:52 PM 26.9139 -81.4711 332° Northwest 453 521 34,600 2,150 Climbing Miami Center
Tue 01:13:52 PM 27.0289 -81.5294 336° Northwest 453 521 36,600 1,833 Climbing Miami Center
Tue 01:15:00 PM 27.1403 -81.6148 330° Northwest  Level FlightAware
Tue 01:15:52 PM 27.2444 -81.6386 330° Northwest 446 513 40,100  Level Miami Center
Tue 01:16:52 PM 27.3553 -81.6944 336° Northwest 446 513 41,700 1,450 Climbing Miami Center
Tue 01:17:52 PM 27.4764 -81.7558 336° Northwest 434 499 43,000 650 Climbing Miami Center
Tue 01:18:52 PM 27.5872 -81.8119 336° Northwest 439 505 43,000  Level Miami Center
Tue 01:19:52 PM 27.7019 -81.8708 336° Northwest 446 513 43,000  Level Miami Center
Tue 01:21:39 PM 27.9047 -81.9697 337° Northwest 513 590 43,000  Level Jacksonville Center
Tue 01:22:39 PM 28.0136 -82.0369 331° Northwest 467 537 43,000  Level Jacksonville Center
Tue 01:23:39 PM 28.1142 -82.1136 326° Northwest 450 518 43,000  Level Jacksonville Center
Tue 01:24:39 PM 28.2189 -82.1906 327° Northwest 445 512 43,000  Level Jacksonville Center
Tue 01:25:39 PM 28.3217 -82.2653 327° Northwest 445 512 43,000  Level Jacksonville Center
Tue 01:26:39 PM 28.4264 -82.3403 328° Northwest 445 512 43,000  Level Jacksonville Center
Tue 01:27:39 PM 28.5289 -82.4178 326° Northwest 445 512 43,000  Level Jacksonville Center
Tue 01:28:39 PM 28.6356 -82.4953 327° Northwest 445 512 43,000  Level Jacksonville Center
Tue 01:29:39 PM 28.7339 -82.5681 327° Northwest 440 506 43,000 -50 Level Jacksonville Center
Tue 01:30:39 PM 28.8383 -82.6436 328° Northwest 440 506 42,900  Descending Jacksonville Center
Tue 01:31:39 PM 28.9428 -82.7217 327° Northwest 445 512 43,000 50 Climbing Jacksonville Center
Tue 01:32:39 PM 29.0453 -82.7975 327° Northwest 445 512 43,000  Level Jacksonville Center
Tue 01:33:39 PM 29.1497 -82.8758 327° Northwest 445 512 43,000  Level Jacksonville Center
Tue 01:34:39 PM 29.2519 -82.9519 327° Northwest 445 512 43,000  Level Jacksonville Center
Tue 01:35:39 PM 29.3542 -83.0283 327° Northwest 445 512 43,000  Level Jacksonville Center
Tue 01:36:39 PM 29.4606 -83.1097 326° Northwest 450 518 43,000  Level Jacksonville Center
Tue 01:37:39 PM 29.5792 -83.1958 328° Northwest 456 525 43,000  Level Jacksonville Center
Tue 01:38:39 PM 29.6708 -83.2703 325° Northwest 456 525 43,000  Level Jacksonville Center
Tue 01:39:39 PM 29.7875 -83.3544 328° Northwest 456 525 43,000  Level Jacksonville Center
Tue 01:40:39 PM 29.8917 -83.4317 327° Northwest 456 525 43,000  Level Jacksonville Center
Tue 01:41:39 PM 29.9956 -83.5114 326° Northwest 450 518 43,000  Level Jacksonville Center
Tue 01:42:39 PM 30.1017 -83.5911 327° Northwest 450 518 43,000 550 Level Jacksonville Center
Tue 01:43:39 PM 30.2097 -83.6714 327° Northwest 460 529 44,100 900 Climbing Jacksonville Center
Tue 01:44:39 PM 30.3158 -83.7492 328° Northwest 460 529 44,800 450 Climbing Jacksonville Center
Tue 01:45:39 PM 30.4197 -83.8319 326° Northwest 460 529 45,000 100 Climbing Jacksonville Center
Tue 01:46:39 PM 30.5214 -83.9103 326° Northwest 455 524 45,000  Level Jacksonville Center
Tue 01:47:39 PM 30.6208 -83.9886 326° Northwest 443 510 45,000  Level Jacksonville Center
Tue 01:48:39 PM 30.7225 -84.0669 326° Northwest 443 510 45,000  Level Jacksonville Center
Tue 01:49:39 PM 30.8283 -84.1481 327° Northwest 443 510 45,000  Level Jacksonville Center
Tue 01:50:39 PM 30.9111 -84.2147 325° Northwest 448 516 45,000  Level Jacksonville Center
Tue 01:51:39 PM 31.0250 -84.3011 327° Northwest 448 516 45,000  Level Jacksonville Center
Tue 01:52:39 PM 31.1306 -84.3828 326° Northwest 448 516 45,000  Level Jacksonville Center
Tue 01:53:39 PM 31.2339 -84.4622 327° Northwest 448 516 45,000  Level Jacksonville Center
Tue 01:56:04 PM 31.4883 -84.6647 326° Northwest 458 527 45,000  Level Atlanta Center
Tue 01:57:04 PM 31.5922 -84.7458 326° Northwest 452 520 45,000  Level Atlanta Center
Tue 01:58:04 PM 31.6961 -84.8297 326° Northwest 452 520 45,000  Level Atlanta Center
Tue 01:59:04 PM 31.8000 -84.9111 326° Northwest 457 526 45,000  Level Atlanta Center
Tue 02:00:04 PM 31.9078 -84.9978 326° Northwest 457 526 45,000  Level Atlanta Center
Tue 02:01:04 PM 32.0156 -85.0822 326° Northwest 462 532 45,000  Level Atlanta Center
Tue 02:02:04 PM 32.1192 -85.1644 326° Northwest 462 532 45,000  Level Atlanta Center
Tue 02:03:04 PM 32.2311 -85.2494 327° Northwest 462 532 45,000  Level Atlanta Center
Tue 02:04:04 PM 32.3408 -85.3369 326° Northwest 462 532 45,000  Level Atlanta Center
Tue 02:05:04 PM 32.4506 -85.4222 327° Northwest 462 532 45,000  Level Atlanta Center
Tue 02:06:04 PM 32.5581 -85.5100 325° Northwest 462 532 45,000  Level Atlanta Center
Tue 02:07:04 PM 32.6636 -85.5933 326° Northwest 462 532 45,000  Level Atlanta Center
Tue 02:08:04 PM 32.7731 -85.6842 325° Northwest 462 532 45,000  Level Atlanta Center
Tue 02:09:04 PM 32.8803 -85.7728 325° Northwest 462 532 45,000  Level Atlanta Center
Tue 02:10:04 PM 32.9875 -85.8617 325° Northwest 462 532 45,000  Level Atlanta Center
Tue 02:11:04 PM 33.0950 -85.9456 327° Northwest 462 532 45,000  Level Atlanta Center
Tue 02:12:04 PM 33.2019 -86.0372 324° Northwest 467 537 45,000  Level Atlanta Center
Tue 02:13:04 PM 33.3214 -86.1319 326° Northwest 472 543 45,000  Level Atlanta Center
Tue 02:14:04 PM 33.4283 -86.2242 324° Northwest 464 534 45,000  Level Atlanta Center
Tue 02:15:04 PM 33.5353 -86.3117 326° Northwest 469 540 45,000  Level Atlanta Center
Tue 02:16:04 PM 33.6236 -86.3914 323° Northwest 464 534 45,000  Level Atlanta Center
Tue 02:17:04 PM 33.7306 -86.4792 326° Northwest 464 534 45,000  Level Atlanta Center
Tue 02:18:04 PM 33.8372 -86.5672 326° Northwest 464 534 45,000  Level Atlanta Center
Tue 02:20:02 PM 34.0492 -86.7497 325° Northwest 467 537 45,000  Level Memphis Center
Tue 02:21:02 PM 34.1539 -86.8358 326° Northwest 467 537 45,000  Level Memphis Center
Tue 02:22:02 PM 34.2714 -86.9314 326° Northwest 457 526 45,000  Level Memphis Center
Tue 02:23:02 PM 34.3783 -87.0203 326° Northwest 457 526 45,000  Level Memphis Center
Tue 02:24:02 PM 34.4831 -87.1144 323° Northwest 462 532 45,000  Level Memphis Center
Tue 02:25:02 PM 34.5897 -87.2061 325° Northwest 468 539 45,000  Level Memphis Center
Tue 02:26:02 PM 34.6836 -87.2886 324° Northwest 468 539 45,000  Level Memphis Center
Tue 02:27:02 PM 34.7900 -87.3783 325° Northwest 468 539 45,000  Level Memphis Center
Tue 02:28:02 PM 34.8986 -87.4706 325° Northwest 468 539 45,000  Level Memphis Center
Tue 02:29:02 PM 35.0050 -87.5658 324° Northwest 468 539 45,000  Level Memphis Center
Tue 02:30:02 PM 35.1114 -87.6589 324° Northwest 468 539 45,000  Level Memphis Center
Tue 02:31:02 PM 35.2242 -87.7594 324° Northwest 480 552 45,000  Level Memphis Center
Tue 02:32:02 PM 35.3303 -87.8503 325° Northwest 480 552 45,000  Level Memphis Center
Tue 02:33:02 PM 35.4386 -87.9489 323° Northwest 464 534 45,000  Level Memphis Center
Tue 02:34:02 PM 35.5447 -88.0453 324° Northwest 462 532 45,000  Level Memphis Center
Tue 02:35:02 PM 35.6508 -88.1394 324° Northwest 467 537 45,000  Level Memphis Center
Tue 02:36:02 PM 35.7628 -88.2286 327° Northwest 472 543 45,000  Level Memphis Center
Tue 02:37:02 PM 35.8686 -88.3206 325° Northwest 472 543 45,000  Level Memphis Center
Tue 02:38:02 PM 35.9744 -88.4206 323° Northwest 477 549 45,000  Level Memphis Center
Tue 02:39:02 PM 36.0822 -88.5156 325° Northwest 477 549 45,000 -300 Level Memphis Center
Tue 02:40:02 PM 36.1900 -88.6133 324° Northwest 477 549 44,400 -850 Descending Memphis Center
Tue 02:41:02 PM 36.2978 -88.7114 324° Northwest 483 556 43,300 -1,300 Descending Memphis Center
Tue 02:42:02 PM 36.4053 -88.8072 324° Northwest 483 556 41,800 -1,500 Descending Memphis Center
Tue 02:43:02 PM 36.5106 -88.9033 324° Northwest 483 556 40,300 -1,500 Descending Memphis Center
Tue 02:44:02 PM 36.6097 -88.9919 324° Northwest 484 557 38,800 -1,500 Descending Memphis Center
Tue 02:45:02 PM 36.7169 -89.0911 323° Northwest 484 557 37,300 -1,500 Descending Memphis Center
Tue 02:46:02 PM 36.8242 -89.1958 322° Northwest 489 563 35,800 -1,500 Descending Memphis Center
Tue 02:47:02 PM 36.9336 -89.2953 324° Northwest 489 563 34,300 -1,300 Descending Memphis Center
Tue 02:48:02 PM 37.0386 -89.3953 323° Northwest 489 563 33,200 -1,400 Descending Memphis Center
Tue 02:49:02 PM 37.1433 -89.4931 323° Northwest 484 557 31,500 -2,043 Descending Memphis Center
Tue 02:50:20 PM 37.2914 -89.6300 324° Northwest 475 547 28,500 -2,229 Descending Kansas Center
Tue 02:51:22 PM 37.3936 -89.7247 324° Northwest 468 539 26,300 -2,032 Descending Kansas Center
Tue 02:52:24 PM 37.4897 -89.8169 323° Northwest 451 519 24,300 -1,984 Descending Kansas Center
Tue 02:53:26 PM 37.5853 -89.9078 323° Northwest 439 505 22,200 -2,146 Descending Kansas Center
Tue 02:54:27 PM 37.6817 -89.9967 324° Northwest 433 498 19,900 -2,195 Descending Kansas Center
Tue 02:55:29 PM 37.7689 -90.0806 323° Northwest 412 474 17,700 -2,032 Descending Kansas Center
Tue 02:56:31 PM 37.8531 -90.1603 323° Northwest 391 450 15,700 -1,935 Descending Kansas Center
Tue 02:57:33 PM 37.9344 -90.2361 324° Northwest 370 426 13,700 -1,790 Descending Kansas Center
Tue 02:58:35 PM 38.0394 -90.3094 331° Northwest 360 414 12,000 -1,181 Descending Kansas Center
Tue 02:59:40 PM 38.1311 -90.3489 341° North 349 402 11,200 -850 Descending Kansas Center
Tue 03:00:42 PM 38.2106 -90.4242 323° Northwest 357 411 10,200 -585 Descending Kansas Center
Tue 03:01:43 PM 38.2814 -90.5050 318° Northwest 346 398 10,000 -195 Descending Kansas Center
Tue 03:02:45 PM 38.3506 -90.5831 319° Northwest 336 387 9,800 -1,306 Descending Kansas Center
Tue 03:03:47 PM 38.4047 -90.6450 318° Northwest 274 315 7,300 -2,565 Descending Kansas Center
Tue 03:04:49 PM 38.4692 -90.7169 319° Northwest 258 297 4,500 -1,887 Descending Kansas Center
Tue 03:05:51 PM 38.5217 -90.7761 319° Northwest 254 292 3,400 -968 Descending Kansas Center
Tue 03:06:53 PM 38.5614 -90.8344 311° West 235 270 2,500 -435 Descending Kansas Center
Tue 03:07:55 PM 38.6022 -90.8386 355° North 199 229 2,500  Level Kansas Center
Tue 03:08:57 PM 38.6289 -90.8000 49° Northeast 164 189 2,500 -290 Level Kansas Center
Tue 03:09:59 PM 38.6428 -90.7503 70° East 153 176 1,900 -683 Descending Kansas Center
Tue 03:11:00 PM 38.6514 -90.6992 78° East 151 174 1,100 -585 Descending Kansas Center
Tue 03:12:02 PM 38.6603 -90.6472 78° East 145 167 700 -387 Descending Kansas Center

Login

Don't have an account? Register now (free) for customized features, flight alerts, and more!